createdAt,value
2022-10-03T00:01:37.502Z,82.48
2022-10-03T00:04:07.972Z,81.89
2022-10-03T00:06:57.968Z,82.62
2022-10-03T00:09:26.678Z,81.87
2022-10-03T00:11:59.762Z,81.96
2022-10-03T00:15:01.051Z,83.20
2022-10-03T00:17:45.549Z,82.54
2022-10-03T00:20:15.808Z,82.32
2022-10-03T00:23:04.571Z,83.13
2022-10-03T00:25:35.331Z,82.27
2022-10-03T00:28:44.547Z,83.57
2022-10-03T00:31:18.794Z,82.67
2022-10-03T00:34:21.609Z,83.95
2022-10-03T00:37:12.256Z,83.21
2022-10-03T00:40:16.467Z,83.67
2022-10-03T00:43:01.392Z,83.36
2022-10-03T00:45:58.865Z,83.99
2022-10-03T00:48:29.087Z,83.46
2022-10-03T00:51:03.147Z,84.07
2022-10-03T00:53:56.141Z,84.46
2022-10-03T00:56:32.479Z,84.22
2022-10-03T00:59:38.348Z,84.17
2022-10-03T01:02:30.325Z,83.98
2022-10-03T01:05:33.779Z,83.83
2022-10-03T01:08:04.033Z,83.64
2022-10-03T01:10:37.416Z,83.48
2022-10-03T01:13:26.673Z,84.54
2022-10-03T01:16:18.512Z,84.21
2022-10-03T01:18:57.829Z,84.28
2022-10-03T01:21:46.239Z,84.29
2022-10-03T01:24:45.845Z,83.84
2022-10-03T01:27:56.853Z,84.44
2022-10-03T01:30:24.454Z,83.76
2022-10-03T01:33:00.810Z,84.49
2022-10-03T01:36:03.259Z,85.19
2022-10-03T01:38:53.832Z,85.23
2022-10-03T01:41:27.139Z,84.34
2022-10-03T01:44:11.683Z,84.68
2022-10-03T01:46:46.643Z,84.79
2022-10-03T01:49:43.149Z,84.80
2022-10-03T01:52:35.180Z,85.66
2022-10-03T01:55:25.583Z,85.32
2022-10-03T01:58:13.264Z,85.29
2022-10-03T02:00:46.134Z,85.66
2022-10-03T02:03:36.328Z,85.42
2022-10-03T02:06:21.511Z,84.86
2022-10-03T02:08:54.861Z,84.95
2022-10-03T02:11:30.235Z,85.58
2022-10-03T02:14:20.327Z,85.57
2022-10-03T02:17:05.148Z,85.29
2022-10-03T02:19:48.999Z,85.33
2022-10-03T02:22:35.054Z,85.00
2022-10-03T02:25:35.558Z,85.14
2022-10-03T02:28:36.793Z,85.45
2022-10-03T02:31:32.410Z,85.64
2022-10-03T02:34:29.962Z,85.52
2022-10-03T02:37:18.724Z,84.73
2022-10-03T02:40:05.048Z,85.04
2022-10-03T02:42:59.963Z,85.41
2022-10-03T02:45:58.232Z,85.30
2022-10-03T02:48:44.270Z,85.32
2022-10-03T02:51:36.360Z,84.86
2022-10-03T02:54:31.706Z,85.06
2022-10-03T02:57:20.864Z,84.78
2022-10-03T03:00:14.702Z,85.25
2022-10-03T03:03:01.463Z,85.32
2022-10-03T03:06:05.560Z,85.15
2022-10-03T03:08:54.767Z,84.21
2022-10-03T03:11:50.839Z,85.26
2022-10-03T03:14:52.399Z,85.29
2022-10-03T03:17:34.083Z,85.44
2022-10-03T03:20:29.359Z,85.80
2022-10-03T03:23:09.424Z,84.84
2022-10-03T03:25:55.446Z,85.65
2022-10-03T03:28:47.126Z,85.47
2022-10-03T03:31:19.026Z,85.15
2022-10-03T03:34:02.324Z,85.67
2022-10-03T03:36:38.759Z,85.46
2022-10-03T03:39:27.702Z,85.60
2022-10-03T03:42:40.347Z,85.40
2022-10-03T03:45:41.800Z,85.71
2022-10-03T03:48:31.140Z,84.75
2022-10-03T03:51:19.607Z,85.69
2022-10-03T03:54:03.671Z,85.35
2022-10-03T03:56:39.922Z,84.97
2022-10-03T03:59:22.386Z,85.24
2022-10-03T04:02:05.406Z,85.27
2022-10-03T04:04:55.866Z,85.67
2022-10-03T04:07:44.766Z,85.19
2022-10-03T04:10:31.984Z,85.07
2022-10-03T04:13:23.857Z,84.96
2022-10-03T04:15:59.808Z,84.65
2022-10-03T04:18:59.826Z,84.94
2022-10-03T04:21:39.941Z,84.86
2022-10-03T04:24:32.226Z,84.58
2022-10-03T04:27:31.383Z,84.79
2022-10-03T04:30:18.875Z,84.65
2022-10-03T04:32:52.508Z,84.15
2022-10-03T04:35:52.409Z,83.92
2022-10-03T04:39:16.658Z,84.58
2022-10-03T04:41:53.172Z,84.41
2022-10-03T04:44:33.156Z,84.07
2022-10-03T04:47:16.866Z,83.83
2022-10-03T04:49:53.138Z,83.86
2022-10-03T04:52:39.540Z,84.11
2022-10-03T04:55:30.172Z,83.91
2022-10-03T04:58:20.422Z,83.27
2022-10-03T05:01:15.416Z,83.09
2022-10-03T05:03:53.335Z,82.95
2022-10-03T05:06:42.036Z,83.01
2022-10-03T05:09:40.091Z,82.92
2022-10-03T05:12:13.010Z,82.39
2022-10-03T05:15:12.673Z,82.85
2022-10-03T05:18:11.463Z,82.71
2022-10-03T05:20:51.948Z,82.35
2022-10-03T05:24:03.040Z,82.41
2022-10-03T05:26:44.590Z,81.97
2022-10-03T05:29:37.491Z,81.82
2022-10-03T05:32:27.057Z,82.14
2022-10-03T05:35:12.422Z,81.90
2022-10-03T05:37:52.412Z,81.60
2022-10-03T05:40:28.780Z,82.08
2022-10-03T05:43:23.847Z,81.78
2022-10-03T05:46:12.354Z,81.29
2022-10-03T05:48:48.124Z,81.04
2022-10-03T05:51:18.357Z,80.82
2022-10-03T05:54:00.617Z,80.74
2022-10-03T05:56:38.951Z,80.69
2022-10-03T05:59:20.312Z,80.51
2022-10-03T06:01:50.565Z,80.70
2022-10-03T06:04:39.263Z,80.61
2022-10-03T06:07:39.057Z,80.52
2022-10-03T06:10:29.396Z,80.37
2022-10-03T06:13:15.472Z,80.09
2022-10-03T06:15:42.928Z,79.83
2022-10-03T06:18:32.375Z,79.94
2022-10-03T06:21:08.608Z,79.70
2022-10-03T06:24:14.345Z,79.53
2022-10-03T06:27:19.031Z,79.14
2022-10-03T06:30:26.070Z,78.68
2022-10-03T06:33:24.484Z,78.71
2022-10-03T06:35:54.646Z,78.46
2022-10-03T06:38:36.490Z,78.43
2022-10-03T06:41:39.249Z,78.81
2022-10-03T06:44:12.678Z,78.46
2022-10-03T06:46:45.700Z,78.36
2022-10-03T06:49:34.112Z,78.02
2022-10-03T06:52:15.323Z,77.76
2022-10-03T06:54:48.834Z,77.75
2022-10-03T06:57:40.808Z,77.63
2022-10-03T07:00:11.879Z,77.88
2022-10-03T07:03:21.697Z,77.42
2022-10-03T07:06:11.913Z,77.95
2022-10-03T07:08:45.424Z,77.94
2022-10-03T07:11:31.473Z,78.46
2022-10-03T07:14:18.761Z,78.88
2022-10-03T07:17:15.793Z,79.11
2022-10-03T07:19:55.043Z,79.54
2022-10-03T07:23:15.959Z,79.86
2022-10-03T07:25:55.706Z,79.52
2022-10-03T07:28:48.617Z,79.46
2022-10-03T07:31:37.913Z,79.11
2022-10-03T07:34:20.446Z,79.17
2022-10-03T07:37:32.695Z,78.92
2022-10-03T07:40:20.350Z,78.87
2022-10-03T07:42:53.901Z,79.02
2022-10-03T07:45:37.581Z,79.34
2022-10-03T07:48:42.453Z,79.82
2022-10-03T07:51:15.074Z,79.92
2022-10-03T07:54:05.663Z,80.91
2022-10-03T07:56:35.914Z,80.51
2022-10-03T07:59:41.180Z,81.65
2022-10-03T08:02:39.301Z,82.02
2022-10-03T08:05:39.738Z,82.63
2022-10-03T08:08:25.198Z,82.24
2022-10-03T08:11:14.196Z,82.27
2022-10-03T08:13:44.497Z,82.34
2022-10-03T08:16:40.093Z,82.02
2022-10-03T08:19:35.169Z,81.91
2022-10-03T08:22:25.634Z,81.89
2022-10-03T08:25:30.203Z,82.11
2022-10-03T08:27:58.802Z,82.15
2022-10-03T08:30:48.252Z,82.36
2022-10-03T08:33:25.105Z,82.31
2022-10-03T08:36:14.480Z,83.00
2022-10-03T08:38:59.752Z,83.18
2022-10-03T08:41:58.043Z,83.68
2022-10-03T08:44:30.470Z,83.08
2022-10-03T08:47:25.344Z,83.59
2022-10-03T08:50:05.826Z,83.28
2022-10-03T08:52:51.857Z,83.91
2022-10-03T08:55:32.490Z,83.27
2022-10-03T08:58:26.902Z,83.31
2022-10-03T09:01:28.108Z,82.48
2022-10-03T09:04:51.499Z,82.54
2022-10-03T09:07:22.258Z,82.54
2022-10-03T09:10:19.417Z,82.95
2022-10-03T09:13:14.479Z,83.11
2022-10-03T09:15:41.947Z,82.43
2022-10-03T09:18:46.784Z,82.59
2022-10-03T09:21:37.407Z,82.76
2022-10-03T09:24:53.155Z,82.75
2022-10-03T09:27:43.375Z,82.89
2022-10-03T09:30:16.768Z,82.75
2022-10-03T09:32:47.280Z,82.76
2022-10-03T09:35:39.274Z,82.43
2022-10-03T09:38:31.342Z,81.84
2022-10-03T09:41:46.329Z,80.47
2022-10-03T09:44:25.398Z,79.92
2022-10-03T09:47:28.414Z,79.00
2022-10-03T09:50:21.225Z,78.95
2022-10-03T09:53:16.315Z,78.67
2022-10-03T09:56:02.683Z,78.57
2022-10-03T09:58:56.095Z,78.25
2022-10-03T10:01:32.890Z,78.60
2022-10-03T10:04:37.811Z,78.14
2022-10-03T10:07:35.730Z,77.30
2022-10-03T10:10:36.965Z,77.69
2022-10-03T10:13:13.206Z,77.82
2022-10-03T10:16:19.132Z,78.06
2022-10-03T10:19:11.640Z,77.84
2022-10-03T10:21:51.255Z,78.04
2022-10-03T10:24:30.579Z,78.34
2022-10-03T10:27:28.529Z,78.29
2022-10-03T10:30:01.807Z,78.81
2022-10-03T10:33:02.920Z,77.40
2022-10-03T10:35:51.940Z,77.52
2022-10-03T10:38:25.321Z,77.83
2022-10-03T10:41:25.175Z,78.32
2022-10-03T10:44:07.974Z,77.99
2022-10-03T10:47:13.923Z,76.53
2022-10-03T10:50:08.584Z,67.80
2022-10-03T10:53:09.770Z,56.96
2022-10-03T10:56:00.253Z,56.21
2022-10-03T10:58:46.685Z,57.65
2022-10-03T11:01:56.888Z,60.34
2022-10-03T11:04:49.225Z,64.07
2022-10-03T11:07:31.315Z,66.30
2022-10-03T11:10:10.823Z,68.23
2022-10-03T11:13:00.945Z,70.04
2022-10-03T11:15:47.732Z,70.69
2022-10-03T11:18:50.302Z,70.68
2022-10-03T11:21:45.766Z,70.41
2022-10-03T11:24:37.709Z,69.82
2022-10-03T11:27:35.650Z,69.89
2022-10-03T11:30:21.211Z,69.69
2022-10-03T11:32:57.657Z,69.39
2022-10-03T11:35:31.193Z,68.18
2022-10-03T11:38:26.263Z,67.70
2022-10-03T11:41:08.752Z,68.44
2022-10-03T11:43:45.268Z,66.51
2022-10-03T11:46:54.426Z,59.23
2022-10-03T11:49:40.435Z,56.37
2022-10-03T11:52:39.130Z,55.72
2022-10-03T11:55:30.494Z,55.18
2022-10-03T11:58:24.023Z,53.09
2022-10-03T12:01:11.303Z,50.50
2022-10-03T12:04:05.320Z,52.72
2022-10-03T12:07:14.999Z,51.36
2022-10-03T12:10:09.818Z,53.29
2022-10-03T12:12:52.272Z,57.44
2022-10-03T12:15:28.494Z,58.82
2022-10-03T12:18:09.692Z,60.65
2022-10-03T12:21:05.419Z,59.75
2022-10-03T12:23:33.046Z,58.35
2022-10-03T12:26:03.162Z,58.34
2022-10-03T12:28:42.945Z,59.66
2022-10-03T12:31:30.086Z,61.50
2022-10-03T12:34:20.198Z,61.82
2022-10-03T12:37:09.010Z,62.86
2022-10-03T12:40:00.951Z,64.90
2022-10-03T12:43:05.441Z,64.90
2022-10-03T12:45:50.944Z,65.98
2022-10-03T12:48:30.046Z,65.58
2022-10-03T12:51:06.771Z,64.58
2022-10-03T12:54:12.581Z,65.73
2022-10-03T12:56:50.313Z,65.57
2022-10-03T12:59:42.025Z,66.48
2022-10-03T13:02:18.515Z,66.59
2022-10-03T13:05:10.377Z,67.23
2022-10-03T13:08:03.934Z,67.39
2022-10-03T13:10:47.874Z,68.07
2022-10-03T13:13:42.914Z,67.82
2022-10-03T13:16:16.559Z,66.74
2022-10-03T13:18:51.841Z,66.65
2022-10-03T13:21:44.534Z,65.90
2022-10-03T13:24:47.095Z,64.12
2022-10-03T13:27:40.447Z,64.81
2022-10-03T13:30:22.882Z,64.24
2022-10-03T13:32:56.190Z,64.08
2022-10-03T13:35:48.904Z,64.44
2022-10-03T13:38:37.175Z,64.28
2022-10-03T13:41:50.202Z,63.52
2022-10-03T13:44:23.824Z,62.70
2022-10-03T13:46:58.209Z,61.78
2022-10-03T13:49:36.007Z,60.99
2022-10-03T13:52:34.086Z,60.55
2022-10-03T13:55:28.712Z,60.23
2022-10-03T13:58:11.676Z,60.55
2022-10-03T14:01:13.706Z,61.11
2022-10-03T14:04:06.814Z,60.56
2022-10-03T14:06:48.321Z,60.63
2022-10-03T14:09:41.521Z,60.82
2022-10-03T14:12:51.004Z,61.39
2022-10-03T14:15:42.730Z,62.28
2022-10-03T14:18:33.847Z,62.21
2022-10-03T14:21:40.101Z,62.53
2022-10-03T14:24:43.188Z,62.42
2022-10-03T14:27:34.714Z,62.39
2022-10-03T14:30:31.480Z,62.18
2022-10-03T14:33:12.158Z,62.65
2022-10-03T14:36:08.813Z,63.01
2022-10-03T14:39:03.425Z,62.63
2022-10-03T14:41:49.524Z,62.86
2022-10-03T14:44:22.674Z,62.63
2022-10-03T14:47:02.986Z,62.98
2022-10-03T14:49:53.506Z,62.91
2022-10-03T14:52:29.066Z,62.88
2022-10-03T14:55:02.774Z,62.63
2022-10-03T14:57:53.212Z,62.53
2022-10-03T15:00:35.479Z,62.76
2022-10-03T15:03:22.703Z,62.47
2022-10-03T15:05:53.419Z,62.60
2022-10-03T15:08:22.663Z,62.63
2022-10-03T15:10:55.972Z,62.96
2022-10-03T15:13:27.545Z,63.06
2022-10-03T15:15:56.916Z,63.13
2022-10-03T15:18:25.550Z,63.09
2022-10-03T15:20:57.777Z,63.10
2022-10-03T15:23:39.759Z,62.96
2022-10-03T15:26:18.292Z,62.86
2022-10-03T15:28:50.167Z,62.85
2022-10-03T15:31:34.052Z,63.33
2022-10-03T15:34:05.052Z,63.54
2022-10-03T15:36:38.669Z,63.45
2022-10-03T15:39:19.362Z,63.59
2022-10-03T15:42:06.325Z,63.63
2022-10-03T15:44:40.134Z,64.03
2022-10-03T15:47:27.414Z,63.87
2022-10-03T15:50:00.578Z,64.26
2022-10-03T15:52:33.395Z,64.53
2022-10-03T15:55:12.825Z,64.64
2022-10-03T15:57:46.383Z,64.63
2022-10-03T16:00:27.834Z,64.92
2022-10-03T16:03:21.969Z,65.14
2022-10-03T16:06:02.801Z,65.56
2022-10-03T16:08:36.265Z,66.07
2022-10-03T16:11:26.674Z,67.50
2022-10-03T16:14:12.872Z,68.77
2022-10-03T16:16:54.240Z,69.11
2022-10-03T16:19:28.088Z,69.88
2022-10-03T16:22:14.074Z,70.64
2022-10-03T16:25:17.965Z,71.36
2022-10-03T16:27:56.908Z,71.17
2022-10-03T16:30:31.178Z,71.79
2022-10-03T16:33:23.984Z,72.46
2022-10-03T16:35:55.043Z,71.97
2022-10-03T16:38:26.017Z,71.78
2022-10-03T16:41:00.025Z,72.20
2022-10-03T16:43:32.309Z,72.19
2022-10-03T16:46:04.348Z,72.35
2022-10-03T16:49:04.060Z,71.83
2022-10-03T16:51:42.033Z,72.37
2022-10-03T16:54:21.752Z,72.47
2022-10-03T16:56:57.149Z,71.83
2022-10-03T16:59:29.062Z,71.63
2022-10-03T17:02:02.146Z,71.86
2022-10-03T17:04:37.333Z,71.52
2022-10-03T17:07:18.893Z,71.24
2022-10-03T17:09:49.858Z,70.73
2022-10-03T17:12:24.687Z,70.56
2022-10-03T17:14:56.207Z,70.11
2022-10-03T17:17:48.057Z,70.04
2022-10-03T17:20:19.698Z,70.35
2022-10-03T17:23:02.710Z,70.50
2022-10-03T17:25:51.220Z,70.53
2022-10-03T17:29:06.689Z,70.44
2022-10-03T17:31:45.257Z,70.38
2022-10-03T17:34:17.090Z,70.63
2022-10-03T17:37:07.279Z,72.04
2022-10-03T17:40:05.582Z,72.73
2022-10-03T17:42:42.861Z,73.48
2022-10-03T17:45:30.746Z,73.58
2022-10-03T17:48:04.546Z,73.85
2022-10-03T17:50:54.963Z,75.73
2022-10-03T17:53:28.863Z,75.71
2022-10-03T17:56:01.480Z,76.15
2022-10-03T17:58:31.615Z,76.35
2022-10-03T18:01:02.174Z,76.53
2022-10-03T18:03:46.747Z,76.59
2022-10-03T18:06:32.539Z,76.95
2022-10-03T18:09:06.707Z,76.23
2022-10-03T18:11:39.738Z,76.32
2022-10-03T18:14:37.803Z,76.69
2022-10-03T18:17:36.453Z,76.64
2022-10-03T18:20:28.567Z,76.45
2022-10-03T18:23:02.908Z,76.02
2022-10-03T18:29:12.043Z,75.78
2022-10-03T18:31:53.075Z,75.74
2022-10-03T18:34:28.870Z,75.99
2022-10-03T18:36:58.581Z,76.41
2022-10-03T18:39:34.153Z,76.65
2022-10-03T18:42:02.937Z,77.10
2022-10-03T18:44:32.626Z,77.13
2022-10-03T18:47:28.825Z,78.39
2022-10-03T18:50:11.665Z,78.05
2022-10-03T18:52:52.716Z,77.56
2022-10-03T18:55:42.979Z,77.33
2022-10-03T18:58:27.095Z,76.46
2022-10-03T19:01:06.783Z,76.10
2022-10-03T19:03:49.889Z,75.43
2022-10-03T19:06:41.198Z,75.77
2022-10-03T19:09:28.177Z,75.40
2022-10-03T19:12:18.991Z,75.24
2022-10-03T19:15:19.033Z,75.36
2022-10-03T19:17:49.401Z,75.41
2022-10-03T19:20:28.743Z,75.02
2022-10-03T19:23:11.756Z,75.16
2022-10-03T19:25:41.846Z,74.81
2022-10-03T19:28:28.838Z,74.53
2022-10-03T19:31:02.359Z,74.57
2022-10-03T19:33:32.362Z,74.46
2022-10-03T19:36:05.041Z,74.67
2022-10-03T19:38:38.348Z,74.20
2022-10-03T19:41:31.226Z,74.40
2022-10-03T19:44:14.059Z,74.50
2022-10-03T19:46:47.240Z,74.33
2022-10-03T19:49:20.468Z,74.44
2022-10-03T19:51:49.067Z,73.91
2022-10-03T19:54:43.501Z,74.07
2022-10-03T19:57:21.046Z,73.95
2022-10-03T19:59:52.952Z,73.70
2022-10-03T20:02:23.896Z,73.44
2022-10-03T20:05:37.780Z,72.64
2022-10-03T20:08:23.131Z,72.12
2022-10-03T20:11:13.659Z,72.20
2022-10-03T20:13:48.002Z,71.93
2022-10-03T20:16:18.466Z,71.72
2022-10-03T20:18:50.470Z,71.38
2022-10-03T20:21:22.814Z,71.11
2022-10-03T20:23:52.838Z,71.05
2022-10-03T20:26:36.205Z,70.82
2022-10-03T20:29:09.594Z,70.53
2022-10-03T20:31:38.672Z,70.17
2022-10-03T20:34:23.279Z,69.90
2022-10-03T20:37:03.562Z,70.06
2022-10-03T20:39:39.674Z,69.61
2022-10-03T20:42:18.828Z,69.63
2022-10-03T20:44:56.744Z,69.20
2022-10-03T20:47:49.017Z,69.40
2022-10-03T20:50:19.306Z,69.21
2022-10-03T20:52:56.964Z,69.34
2022-10-03T20:55:29.840Z,69.27
2022-10-03T20:58:11.947Z,69.36
2022-10-03T21:00:47.717Z,69.38
2022-10-03T21:03:18.135Z,69.80
2022-10-03T21:05:50.803Z,69.60
2022-10-03T21:08:38.097Z,69.69
